Time;durP1;ratioP1;P1;durP2;ratioP2;P2;SDS_P1;SDS_P2;PMS_P1;PMS_P2;Temp;Humidity;BMP_temperature;BMP_pressure;BME280_temperature;BME280_humidity;BME280_pressure;Samples;Min_cycle;Max_cycle;Signal;HPM_P1;HPM_P2
2020/12/25 00:01:02;;;;;;;22.40;10.65;;;;;;;;;;5071841;28;20036;-73
2020/12/25 00:04:07;;;;;;;25.38;10.70;;;;;;;;;;5071537;28;20055;-73
2020/12/25 00:07:14;;;;;;;20.35;9.55;;;;;;;;;;5071832;28;20052;-73
2020/12/25 00:10:18;;;;;;;22.88;10.73;;;;;;;;;;5070878;28;20041;-73
2020/12/25 00:13:22;;;;;;;17.75;9.93;;;;;;;;;;5071098;28;20151;-73
2020/12/25 00:16:28;;;;;;;18.05;9.43;;;;;;;;;;5071503;28;20045;-73
2020/12/25 00:19:32;;;;;;;18.58;8.95;;;;;;;;;;5071284;28;20044;-73
2020/12/25 00:22:36;;;;;;;23.95;9.43;;;;;;;;;;5071559;28;20057;-73
2020/12/25 00:25:41;;;;;;;17.42;9.57;;;;;;;;;;5071858;28;20044;-73
2020/12/25 00:28:45;;;;;;;13.60;8.88;;;;;;;;;;5071592;28;20036;-73
2020/12/25 00:31:49;;;;;;;17.75;9.23;;;;;;;;;;5071536;28;20040;-73
2020/12/25 00:34:53;;;;;;;19.63;9.43;;;;;;;;;;5070675;28;20039;-73
2020/12/25 00:37:59;;;;;;;16.20;8.93;;;;;;;;;;5071533;28;20128;-73
2020/12/25 00:41:03;;;;;;;20.42;9.85;;;;;;;;;;5071293;28;20036;-73
2020/12/25 00:44:08;;;;;;;21.35;8.82;;;;;;;;;;5071140;28;20512;-73
2020/12/25 00:47:12;;;;;;;15.77;7.88;;;;;;;;;;5070497;28;20051;-73
2020/12/25 00:50:17;;;;;;;12.43;8.30;;;;;;;;;;5082149;28;20043;-73
2020/12/25 00:53:21;;;;;;;17.63;8.43;;;;;;;;;;5070379;28;20043;-73
2020/12/25 00:56:25;;;;;;;14.57;7.82;;;;;;;;;;5071193;28;20542;-73
2020/12/25 00:59:31;;;;;;;17.05;7.68;;;;;;;;;;5093559;28;20028;-73
2020/12/25 01:02:35;;;;;;;19.85;7.60;;;;;;;;;;5070756;28;20514;-73
2020/12/25 01:05:40;;;;;;;12.63;7.25;;;;;;;;;;5071099;28;20401;-73
2020/12/25 01:08:45;;;;;;;12.93;7.00;;;;;;;;;;5071137;28;20044;-75
2020/12/25 01:11:49;;;;;;;13.23;6.75;;;;;;;;;;5070794;28;20035;-75
2020/12/25 01:14:53;;;;;;;16.77;6.63;;;;;;;;;;5071011;28;20036;-75
2020/12/25 01:17:58;;;;;;;10.93;6.75;;;;;;;;;;5071039;28;20036;-74
2020/12/25 01:21:03;;;;;;;14.45;7.05;;;;;;;;;;5070904;28;20365;-75
2020/12/25 01:24:10;;;;;;;10.95;7.28;;;;;;;;;;5070734;28;20408;-74
2020/12/25 01:27:14;;;;;;;16.40;7.05;;;;;;;;;;5074661;28;20369;-75
2020/12/25 01:30:18;;;;;;;16.58;6.47;;;;;;;;;;5074547;28;20049;-75
2020/12/25 01:33:22;;;;;;;13.38;6.55;;;;;;;;;;5074828;28;20389;-75
2020/12/25 01:36:27;;;;;;;16.25;7.13;;;;;;;;;;5074522;28;20044;-75
2020/12/25 01:39:31;;;;;;;14.70;7.20;;;;;;;;;;5074607;28;20511;-75
2020/12/25 01:42:36;;;;;;;18.17;7.68;;;;;;;;;;5074384;28;20044;-74
2020/12/25 01:45:40;;;;;;;13.00;6.65;;;;;;;;;;5074283;28;20057;-74
2020/12/25 01:48:44;;;;;;;11.68;7.22;;;;;;;;;;5074554;28;20033;-74
2020/12/25 01:51:49;;;;;;;12.68;7.25;;;;;;;;;;5074130;28;20036;-74
2020/12/25 01:54:53;;;;;;;17.05;7.55;;;;;;;;;;5074463;28;20574;-75
2020/12/25 01:57:59;;;;;;;20.23;8.80;;;;;;;;;;5074344;28;20489;-75
2020/12/25 02:01:04;;;;;;;19.20;8.45;;;;;;;;;;5074322;28;20047;-74
2020/12/25 02:04:09;;;;;;;15.75;8.55;;;;;;;;;;5074080;28;20049;-75
2020/12/25 02:07:13;;;;;;;17.20;8.27;;;;;;;;;;5074276;28;20037;-75
2020/12/25 02:10:18;;;;;;;14.38;8.05;;;;;;;;;;5074279;28;20103;-74
2020/12/25 02:13:22;;;;;;;17.63;8.68;;;;;;;;;;5074084;28;20028;-74
2020/12/25 02:16:26;;;;;;;17.30;9.35;;;;;;;;;;5073406;28;20047;-75
2020/12/25 02:19:31;;;;;;;16.27;7.78;;;;;;;;;;5074035;28;20041;-74
2020/12/25 02:22:35;;;;;;;16.42;8.00;;;;;;;;;;5073879;28;20044;-75
2020/12/25 02:25:39;;;;;;;12.40;7.47;;;;;;;;;;5073808;28;20033;-75
2020/12/25 02:28:44;;;;;;;17.15;7.38;;;;;;;;;;5073846;28;20036;-75
2020/12/25 02:31:50;;;;;;;17.98;7.03;;;;;;;;;;5073866;28;20047;-74
2020/12/25 02:34:54;;;;;;;11.43;6.57;;;;;;;;;;5072853;28;20397;-74
2020/12/25 02:37:58;;;;;;;14.20;6.35;;;;;;;;;;5071847;28;20037;-74
2020/12/25 02:41:02;;;;;;;15.43;6.63;;;;;;;;;;5073528;28;20051;-75
2020/12/25 02:44:07;;;;;;;14.23;6.55;;;;;;;;;;5073310;28;20362;-75
2020/12/25 02:47:12;;;;;;;12.73;5.93;;;;;;;;;;5073613;28;20523;-74
2020/12/25 02:50:16;;;;;;;14.52;6.75;;;;;;;;;;5073339;28;20056;-75
2020/12/25 02:53:20;;;;;;;15.70;6.10;;;;;;;;;;5073485;28;20037;-75
2020/12/25 02:56:24;;;;;;;13.85;5.90;;;;;;;;;;5073312;28;20052;-75
2020/12/25 02:59:29;;;;;;;12.10;5.80;;;;;;;;;;5073357;28;20503;-75
2020/12/25 03:02:33;;;;;;;11.60;5.65;;;;;;;;;;5073886;28;20040;-74
2020/12/25 03:05:37;;;;;;;12.80;5.13;;;;;;;;;;5073308;28;20049;-75
2020/12/25 03:08:42;;;;;;;14.45;5.53;;;;;;;;;;5073599;28;20037;-75
2020/12/25 03:11:46;;;;;;;12.25;5.18;;;;;;;;;;5073380;28;20036;-74
2020/12/25 03:14:51;;;;;;;15.60;5.70;;;;;;;;;;5073141;28;20040;-75
2020/12/25 03:17:55;;;;;;;13.60;5.63;;;;;;;;;;5072672;28;20385;-75
2020/12/25 03:21:02;;;;;;;13.60;5.28;;;;;;;;;;5072503;28;20040;-75
2020/12/25 03:24:06;;;;;;;15.45;6.10;;;;;;;;;;5073522;28;20053;-75
2020/12/25 03:27:11;;;;;;;13.55;5.57;;;;;;;;;;5072807;28;20390;-74
2020/12/25 03:30:15;;;;;;;19.60;5.93;;;;;;;;;;5072741;28;20036;-74
2020/12/25 03:33:19;;;;;;;10.50;4.95;;;;;;;;;;5072680;28;20036;-75
2020/12/25 03:36:24;;;;;;;10.75;5.03;;;;;;;;;;5072398;28;20049;-74
2020/12/25 03:39:27;;;;;;;11.77;5.20;;;;;;;;;;5072361;28;20045;-75
2020/12/25 03:42:32;;;;;;;15.43;5.50;;;;;;;;;;5072377;28;20508;-75
2020/12/25 03:45:36;;;;;;;14.93;5.82;;;;;;;;;;5072177;28;20402;-74
2020/12/25 03:48:40;;;;;;;12.00;5.55;;;;;;;;;;5072291;28;20051;-75
2020/12/25 03:51:45;;;;;;;19.85;6.82;;;;;;;;;;5072353;28;20040;-75
2020/12/25 03:54:49;;;;;;;12.30;5.00;;;;;;;;;;5072252;28;20037;-75
2020/12/25 03:57:54;;;;;;;12.68;4.60;;;;;;;;;;5072179;28;20040;-75
2020/12/25 04:00:58;;;;;;;12.75;5.05;;;;;;;;;;5072011;28;20032;-75
2020/12/25 04:04:02;;;;;;;15.02;5.00;;;;;;;;;;5071939;28;20047;-75
2020/12/25 04:07:07;;;;;;;11.68;4.95;;;;;;;;;;5072043;28;20043;-75
2020/12/25 04:10:11;;;;;;;21.92;5.53;;;;;;;;;;5071553;28;20525;-75
2020/12/25 04:13:15;;;;;;;17.30;5.32;;;;;;;;;;5071976;28;20480;-75
2020/12/25 04:16:21;;;;;;;16.80;5.97;;;;;;;;;;5071719;28;20045;-75
2020/12/25 04:19:26;;;;;;;10.95;5.03;;;;;;;;;;5071461;28;20032;-75
2020/12/25 04:22:30;;;;;;;13.93;6.78;;;;;;;;;;5071724;28;20037;-75
2020/12/25 04:25:34;;;;;;;12.23;5.00;;;;;;;;;;5071687;28;20059;-75
2020/12/25 04:28:39;;;;;;;24.52;5.55;;;;;;;;;;5071497;28;20392;-75
2020/12/25 04:31:43;;;;;;;12.20;5.40;;;;;;;;;;5071604;28;20503;-75
2020/12/25 04:34:47;;;;;;;13.07;5.28;;;;;;;;;;5071592;28;20397;-75
2020/12/25 04:37:52;;;;;;;13.98;5.15;;;;;;;;;;5071467;28;20036;-75
2020/12/25 04:40:56;;;;;;;16.02;5.35;;;;;;;;;;5071105;28;20039;-75
2020/12/25 04:44:01;;;;;;;11.65;5.10;;;;;;;;;;5071206;28;20416;-75
2020/12/25 04:47:10;;;;;;;10.63;5.13;;;;;;;;;;5071178;28;20047;-75
2020/12/25 04:50:14;;;;;;;12.02;4.95;;;;;;;;;;5071291;28;20045;-75
2020/12/25 04:53:19;;;;;;;13.63;5.35;;;;;;;;;;5071467;28;20062;-75
2020/12/25 04:56:24;;;;;;;14.68;5.72;;;;;;;;;;5071466;28;20063;-75
2020/12/25 04:59:29;;;;;;;19.75;6.03;;;;;;;;;;5070618;28;20043;-75
2020/12/25 05:02:35;;;;;;;13.40;4.90;;;;;;;;;;5071315;28;20048;-74
2020/12/25 05:05:40;;;;;;;14.95;5.20;;;;;;;;;;5070557;28;20040;-74
2020/12/25 05:08:45;;;;;;;17.73;4.65;;;;;;;;;;5071511;28;20400;-75
2020/12/25 05:11:51;;;;;;;17.55;5.28;;;;;;;;;;5071185;28;20036;-75
2020/12/25 05:14:55;;;;;;;18.80;6.35;;;;;;;;;;5071139;28;20037;-75
2020/12/25 05:18:00;;;;;;;15.98;4.88;;;;;;;;;;5070978;28;20036;-74
2020/12/25 05:21:08;;;;;;;17.65;5.40;;;;;;;;;;5070258;28;20071;-75
2020/12/25 05:24:12;;;;;;;12.70;5.35;;;;;;;;;;5070735;28;20051;-75
2020/12/25 05:27:17;;;;;;;15.68;6.40;;;;;;;;;;5070923;28;20048;-75
2020/12/25 05:30:23;;;;;;;15.00;5.30;;;;;;;;;;5070896;28;20044;-75
2020/12/25 05:33:27;;;;;;;13.52;5.30;;;;;;;;;;5070641;28;20040;-75
2020/12/25 05:36:31;;;;;;;13.45;5.00;;;;;;;;;;5070830;28;20032;-75
2020/12/25 05:39:37;;;;;;;14.85;5.43;;;;;;;;;;5070247;28;20044;-75
2020/12/25 05:42:45;;;;;;;12.32;5.03;;;;;;;;;;5070628;28;20369;-75
2020/12/25 05:45:49;;;;;;;16.55;6.25;;;;;;;;;;5070527;28;20056;-75
2020/12/25 05:48:54;;;;;;;11.15;5.35;;;;;;;;;;5070413;28;20636;-75
2020/12/25 05:51:58;;;;;;;15.50;5.78;;;;;;;;;;5070714;28;20025;-75
2020/12/25 05:55:03;;;;;;;14.05;5.47;;;;;;;;;;5070775;28;20024;-75
2020/12/25 05:58:07;;;;;;;17.08;6.00;;;;;;;;;;5070779;28;20040;-75
2020/12/25 06:01:12;;;;;;;15.68;5.53;;;;;;;;;;5070651;28;20396;-75
2020/12/25 06:04:16;;;;;;;14.55;5.90;;;;;;;;;;5070398;28;20071;-75
2020/12/25 06:07:21;;;;;;;13.65;6.50;;;;;;;;;;5070712;28;20495;-75
2020/12/25 06:10:27;;;;;;;15.32;5.97;;;;;;;;;;5070309;28;20521;-75
2020/12/25 06:13:39;;;;;;;15.73;5.78;;;;;;;;;;5073404;28;20037;-75
2020/12/25 06:16:51;;;;;;;20.52;6.28;;;;;;;;;;5074121;28;20057;-75
2020/12/25 06:19:59;;;;;;;14.95;5.78;;;;;;;;;;5073774;28;20047;-75
2020/12/25 06:23:04;;;;;;;14.20;5.80;;;;;;;;;;5073979;28;20048;-75
2020/12/25 06:26:08;;;;;;;14.40;5.93;;;;;;;;;;5074084;28;20033;-75
2020/12/25 06:29:16;;;;;;;24.83;6.10;;;;;;;;;;5073908;28;20036;-75
2020/12/25 06:32:22;;;;;;;15.35;5.38;;;;;;;;;;5073675;28;20048;-75
2020/12/25 06:35:34;;;;;;;11.85;5.05;;;;;;;;;;5073736;28;20398;-75
2020/12/25 06:38:42;;;;;;;17.92;4.80;;;;;;;;;;5073767;28;20392;-75
2020/12/25 06:41:46;;;;;;;13.60;5.40;;;;;;;;;;5073697;28;20056;-75
2020/12/25 06:44:51;;;;;;;11.35;4.68;;;;;;;;;;5073206;28;20505;-75
2020/12/25 06:48:10;;;;;;;9.98;4.78;;;;;;;;;;5073570;28;20045;-74
2020/12/25 06:51:14;;;;;;;11.13;4.85;;;;;;;;;;5073551;28;20044;-75
2020/12/25 06:54:20;;;;;;;12.23;5.13;;;;;;;;;;5073421;28;20054;-75
2020/12/25 06:57:27;;;;;;;16.13;5.00;;;;;;;;;;5072566;28;20051;-75
2020/12/25 07:00:32;;;;;;;13.95;5.05;;;;;;;;;;5073216;28;20032;-75
2020/12/25 07:03:37;;;;;;;16.08;5.57;;;;;;;;;;5072944;28;20048;-75
2020/12/25 07:06:43;;;;;;;12.10;4.95;;;;;;;;;;5073117;28;20505;-75
2020/12/25 07:09:48;;;;;;;15.55;5.25;;;;;;;;;;5072995;28;20044;-75
2020/12/25 07:12:54;;;;;;;17.80;5.45;;;;;;;;;;5073091;28;20044;-75
2020/12/25 07:15:59;;;;;;;8.48;4.40;;;;;;;;;;5072950;28;20051;-75
2020/12/25 07:19:04;;;;;;;12.65;4.72;;;;;;;;;;5072812;28;20040;-75
2020/12/25 07:22:08;;;;;;;9.27;4.65;;;;;;;;;;5072540;28;20044;-75
2020/12/25 07:25:13;;;;;;;11.13;4.15;;;;;;;;;;5072418;28;20048;-75
2020/12/25 07:28:22;;;;;;;11.88;5.07;;;;;;;;;;5072743;28;20040;-75
2020/12/25 07:31:26;;;;;;;6.78;3.60;;;;;;;;;;5072673;28;20042;-75
2020/12/25 07:34:31;;;;;;;11.80;4.90;;;;;;;;;;5072556;28;20032;-75
2020/12/25 07:37:35;;;;;;;13.35;5.15;;;;;;;;;;5072394;28;20526;-74
2020/12/25 07:40:39;;;;;;;9.65;4.60;;;;;;;;;;5072417;28;20047;-74
2020/12/25 07:43:44;;;;;;;12.65;4.78;;;;;;;;;;5071950;28;20044;-74
2020/12/25 07:46:48;;;;;;;17.23;5.47;;;;;;;;;;5071933;28;20570;-74
2020/12/25 07:49:53;;;;;;;11.95;5.03;;;;;;;;;;5071889;28;20037;-65
2020/12/25 07:52:58;;;;;;;11.05;4.82;;;;;;;;;;5071803;28;20033;-63
2020/12/25 07:56:06;;;;;;;41.42;26.65;;;;;;;;;;5071927;28;20036;-66
2020/12/25 07:59:11;;;;;;;15.07;8.95;;;;;;;;;;5071886;28;20051;-66
2020/12/25 08:02:17;;;;;;;9.40;4.80;;;;;;;;;;5072048;28;20036;-65
2020/12/25 08:05:21;;;;;;;10.13;4.43;;;;;;;;;;5071461;28;20052;-66
2020/12/25 08:08:25;;;;;;;7.65;3.95;;;;;;;;;;5071500;28;20529;-65
2020/12/25 08:11:34;;;;;;;7.40;4.07;;;;;;;;;;5070895;28;20040;-66
2020/12/25 08:14:43;;;;;;;10.75;4.97;;;;;;;;;;5071740;28;20029;-65
2020/12/25 08:17:49;;;;;;;12.63;4.50;;;;;;;;;;5071616;28;20042;-65
2020/12/25 08:20:54;;;;;;;12.05;4.90;;;;;;;;;;5071734;28;20384;-65
2020/12/25 08:23:58;;;;;;;9.18;4.40;;;;;;;;;;5071313;28;20389;-66
2020/12/25 08:27:03;;;;;;;11.02;5.00;;;;;;;;;;5071666;28;20032;-65
2020/12/25 08:30:08;;;;;;;9.90;4.82;;;;;;;;;;5071313;28;20051;-65
2020/12/25 08:33:21;;;;;;;12.30;4.70;;;;;;;;;;5071247;28;20037;-65
2020/12/25 08:36:27;;;;;;;14.23;4.60;;;;;;;;;;5070723;28;20036;-65
2020/12/25 08:39:31;;;;;;;7.68;4.03;;;;;;;;;;5071324;28;20056;-65
2020/12/25 08:42:36;;;;;;;7.53;3.70;;;;;;;;;;5071154;28;20040;-65
2020/12/25 08:45:54;;;;;;;10.50;3.45;;;;;;;;;;5071168;28;20045;-65
2020/12/25 08:48:59;;;;;;;9.88;3.97;;;;;;;;;;5071016;28;20160;-64
2020/12/25 08:52:03;;;;;;;7.68;3.33;;;;;;;;;;5071294;28;20036;-64
2020/12/25 08:55:08;;;;;;;7.53;3.67;;;;;;;;;;5071178;28;20036;-64
2020/12/25 08:58:15;;;;;;;14.32;3.90;;;;;;;;;;5071231;28;20040;-64
2020/12/25 09:01:20;;;;;;;6.43;3.00;;;;;;;;;;5070798;28;20388;-64
2020/12/25 09:04:24;;;;;;;9.23;3.78;;;;;;;;;;5070898;28;20044;-64
2020/12/25 09:07:28;;;;;;;8.02;3.05;;;;;;;;;;5071178;28;20041;-64
2020/12/25 09:10:33;;;;;;;11.40;3.28;;;;;;;;;;5071100;28;20037;-65
2020/12/25 09:13:37;;;;;;;12.05;3.45;;;;;;;;;;5071169;28;20396;-64
2020/12/25 09:16:42;;;;;;;7.35;2.40;;;;;;;;;;5070901;28;20041;-64
2020/12/25 09:19:46;;;;;;;8.32;3.25;;;;;;;;;;5071030;28;20040;-64
2020/12/25 09:22:50;;;;;;;8.48;3.80;;;;;;;;;;5070881;28;20040;-65
2020/12/25 09:25:55;;;;;;;9.93;3.60;;;;;;;;;;5071063;28;20044;-64
2020/12/25 09:28:59;;;;;;;15.77;5.25;;;;;;;;;;5070794;28;20037;-64
2020/12/25 09:32:04;;;;;;;15.90;6.65;;;;;;;;;;5071002;28;20052;-65
2020/12/25 09:35:08;;;;;;;16.08;6.57;;;;;;;;;;5070694;28;20487;-64
2020/12/25 09:38:13;;;;;;;14.93;4.97;;;;;;;;;;5070764;28;20040;-64
2020/12/25 09:41:17;;;;;;;9.98;5.07;;;;;;;;;;5070812;28;20044;-64
2020/12/25 09:44:22;;;;;;;11.77;6.20;;;;;;;;;;5070747;28;20484;-64
2020/12/25 09:47:29;;;;;;;10.15;3.72;;;;;;;;;;5073760;28;20047;-64
2020/12/25 09:50:33;;;;;;;18.15;5.75;;;;;;;;;;5074493;28;20044;-64
2020/12/25 09:53:38;;;;;;;15.75;5.75;;;;;;;;;;5074715;28;20120;-64
2020/12/25 09:56:42;;;;;;;10.70;4.18;;;;;;;;;;5074376;28;20161;-64
2020/12/25 09:59:47;;;;;;;8.25;4.03;;;;;;;;;;5074404;28;20047;-64
2020/12/25 10:02:51;;;;;;;13.48;4.28;;;;;;;;;;5074418;28;20575;-64
2020/12/25 10:05:56;;;;;;;19.50;5.85;;;;;;;;;;5073981;28;20047;-64
2020/12/25 10:09:01;;;;;;;20.30;7.03;;;;;;;;;;5074193;28;20039;-65
2020/12/25 10:12:05;;;;;;;13.57;5.72;;;;;;;;;;5073921;28;20041;-65
2020/12/25 10:15:09;;;;;;;21.27;7.20;;;;;;;;;;5074012;28;20040;-64
2020/12/25 10:18:14;;;;;;;12.68;5.85;;;;;;;;;;5096477;28;20071;-64
2020/12/25 10:21:18;;;;;;;16.67;5.10;;;;;;;;;;5074067;28;20048;-64
2020/12/25 10:24:22;;;;;;;11.88;4.10;;;;;;;;;;5073110;28;20416;-64
2020/12/25 10:27:27;;;;;;;13.38;3.55;;;;;;;;;;5073788;28;20036;-64
2020/12/25 10:30:31;;;;;;;14.00;3.72;;;;;;;;;;5073514;28;20496;-64
2020/12/25 10:33:37;;;;;;;14.25;4.30;;;;;;;;;;5073527;28;20032;-64
2020/12/25 10:36:42;;;;;;;17.08;3.97;;;;;;;;;;5073721;28;20033;-64
2020/12/25 10:39:47;;;;;;;17.55;4.75;;;;;;;;;;5073284;28;20047;-64
2020/12/25 10:42:51;;;;;;;16.85;5.70;;;;;;;;;;5073275;28;20044;-64
2020/12/25 10:45:55;;;;;;;17.50;4.80;;;;;;;;;;5072883;28;20055;-64
2020/12/25 10:49:00;;;;;;;13.35;4.15;;;;;;;;;;5073116;28;20040;-64
2020/12/25 10:52:04;;;;;;;19.40;5.20;;;;;;;;;;5073107;28;20530;-64
2020/12/25 10:55:09;;;;;;;15.85;4.20;;;;;;;;;;5073237;28;20043;-64
2020/12/25 10:58:13;;;;;;;23.17;4.80;;;;;;;;;;5072163;28;20044;-64
2020/12/25 11:01:23;;;;;;;14.30;5.90;;;;;;;;;;5072834;28;20045;-64
2020/12/25 11:04:27;;;;;;;28.63;14.90;;;;;;;;;;5072753;28;20060;-64
2020/12/25 11:07:32;;;;;;;30.42;13.38;;;;;;;;;;5072849;28;20420;-64
2020/12/25 11:10:36;;;;;;;28.92;11.73;;;;;;;;;;5073015;28;20051;-64
2020/12/25 11:13:42;;;;;;;19.17;7.82;;;;;;;;;;5073085;28;20047;-64
2020/12/25 11:16:46;;;;;;;13.95;4.68;;;;;;;;;;5073021;28;20048;-64
2020/12/25 11:19:55;;;;;;;9.32;4.38;;;;;;;;;;5072813;28;20036;-64
2020/12/25 11:23:00;;;;;;;15.93;6.18;;;;;;;;;;5072841;28;20486;-64
2020/12/25 11:26:04;;;;;;;16.75;6.88;;;;;;;;;;5072682;28;20071;-64
2020/12/25 11:29:09;;;;;;;15.40;3.67;;;;;;;;;;5072682;28;20036;-65
2020/12/25 11:32:13;;;;;;;19.98;9.05;;;;;;;;;;5072527;28;20044;-64
2020/12/25 11:35:17;;;;;;;17.38;6.03;;;;;;;;;;5072331;28;20047;-64
2020/12/25 11:38:22;;;;;;;15.35;5.72;;;;;;;;;;5072393;28;20052;-64
2020/12/25 11:41:27;;;;;;;19.35;6.07;;;;;;;;;;5072547;28;20047;-64
2020/12/25 11:44:31;;;;;;;21.85;9.25;;;;;;;;;;5072377;28;20048;-64
2020/12/25 11:47:35;;;;;;;17.20;7.80;;;;;;;;;;5071934;28;20037;-64
2020/12/25 11:50:39;;;;;;;17.83;7.25;;;;;;;;;;5072321;28;20377;-64
2020/12/25 11:53:44;;;;;;;21.13;7.78;;;;;;;;;;5072334;28;20224;-65
2020/12/25 11:56:49;;;;;;;16.63;5.80;;;;;;;;;;5072388;28;20055;-65
2020/12/25 11:59:53;;;;;;;25.08;5.82;;;;;;;;;;5071993;28;20040;-64
2020/12/25 12:02:57;;;;;;;19.35;7.05;;;;;;;;;;5072142;28;20647;-64
2020/12/25 12:06:02;;;;;;;15.57;5.95;;;;;;;;;;5071821;28;20055;-64
2020/12/25 12:09:06;;;;;;;15.13;6.97;;;;;;;;;;5071679;28;20040;-65
2020/12/25 12:12:10;;;;;;;26.45;9.23;;;;;;;;;;5071706;28;20040;-64
2020/12/25 12:15:15;;;;;;;24.02;8.88;;;;;;;;;;5071594;28;20357;-64
2020/12/25 12:18:20;;;;;;;30.52;11.70;;;;;;;;;;5071679;28;20073;-64
2020/12/25 12:21:25;;;;;;;21.30;8.23;;;;;;;;;;5072289;28;20534;-64
2020/12/25 12:24:29;;;;;;;27.95;10.13;;;;;;;;;;5071602;28;20052;-65
2020/12/25 12:27:34;;;;;;;18.38;9.05;;;;;;;;;;5071629;28;20632;-64
2020/12/25 12:30:38;;;;;;;23.27;9.77;;;;;;;;;;5071392;28;20045;-64
2020/12/25 12:33:42;;;;;;;27.75;10.80;;;;;;;;;;5071551;28;20382;-65
2020/12/25 12:36:47;;;;;;;19.98;8.18;;;;;;;;;;5071338;28;20044;-64
2020/12/25 12:39:51;;;;;;;18.23;7.15;;;;;;;;;;5071423;28;20494;-64
2020/12/25 12:42:55;;;;;;;22.95;8.98;;;;;;;;;;5071255;28;20040;-64
2020/12/25 12:46:00;;;;;;;14.70;7.60;;;;;;;;;;5070976;28;20068;-64
2020/12/25 12:49:04;;;;;;;23.67;11.23;;;;;;;;;;5071333;28;20037;-64
2020/12/25 12:52:09;;;;;;;20.50;9.85;;;;;;;;;;5071154;28;20056;-64
2020/12/25 12:55:13;;;;;;;21.00;11.57;;;;;;;;;;5071184;28;20044;-64
2020/12/25 12:58:18;;;;;;;23.90;12.75;;;;;;;;;;5071174;28;20047;-64
2020/12/25 13:01:22;;;;;;;32.75;15.63;;;;;;;;;;5071073;28;20138;-64
2020/12/25 13:04:26;;;;;;;27.60;15.05;;;;;;;;;;5071231;28;20063;-64
2020/12/25 13:07:31;;;;;;;33.80;20.40;;;;;;;;;;5071197;28;20051;-64
2020/12/25 13:10:35;;;;;;;73.75;32.13;;;;;;;;;;5070918;28;20043;-64
2020/12/25 13:13:40;;;;;;;63.70;32.33;;;;;;;;;;5071190;28;20051;-64
2020/12/25 13:16:44;;;;;;;39.83;20.88;;;;;;;;;;5071020;28;20073;-64
2020/12/25 13:19:48;;;;;;;48.55;25.77;;;;;;;;;;5070963;28;20052;-64
2020/12/25 13:22:52;;;;;;;55.30;31.63;;;;;;;;;;5074831;28;20055;-65
2020/12/25 13:25:57;;;;;;;39.38;22.80;;;;;;;;;;5074816;28;20427;-65
2020/12/25 13:29:01;;;;;;;51.28;27.40;;;;;;;;;;5074675;28;20043;-66
2020/12/25 13:32:07;;;;;;;45.30;23.00;;;;;;;;;;5074968;28;20047;-66
2020/12/25 13:35:11;;;;;;;37.53;18.52;;;;;;;;;;5074916;28;20047;-66
2020/12/25 13:38:15;;;;;;;37.97;20.30;;;;;;;;;;5074671;28;20119;-66
2020/12/25 13:41:21;;;;;;;37.28;20.00;;;;;;;;;;5074869;28;20044;-66
2020/12/25 13:44:25;;;;;;;32.95;14.95;;;;;;;;;;5073826;28;20499;-66
2020/12/25 13:47:29;;;;;;;35.40;18.40;;;;;;;;;;5034606;28;20064;-66
2020/12/25 13:50:33;;;;;;;31.88;17.75;;;;;;;;;;5034761;28;20036;-66
2020/12/25 13:53:38;;;;;;;29.35;15.30;;;;;;;;;;5034563;28;20048;-64
2020/12/25 13:56:43;;;;;;;28.02;13.90;;;;;;;;;;5034577;28;20048;-64
2020/12/25 13:59:48;;;;;;;26.63;13.02;;;;;;;;;;5034388;28;20048;-64
2020/12/25 14:02:53;;;;;;;35.40;19.80;;;;;;;;;;5034455;28;20048;-64
2020/12/25 14:05:57;;;;;;;35.08;16.70;;;;;;;;;;5034140;28;20056;-64
2020/12/25 14:09:01;;;;;;;26.70;11.20;;;;;;;;;;5033996;28;20039;-64
2020/12/25 14:12:05;;;;;;;38.80;18.70;;;;;;;;;;5034159;28;20048;-64
2020/12/25 14:15:10;;;;;;;34.90;16.63;;;;;;;;;;5033932;28;20037;-64
2020/12/25 14:18:14;;;;;;;27.10;13.80;;;;;;;;;;5034090;28;20052;-64
2020/12/25 14:21:18;;;;;;;22.73;12.13;;;;;;;;;;5033760;28;20420;-64
2020/12/25 14:24:23;;;;;;;31.77;15.05;;;;;;;;;;5033965;28;20053;-64
2020/12/25 14:27:27;;;;;;;40.60;22.38;;;;;;;;;;5033886;28;20064;-64
2020/12/25 14:30:32;;;;;;;29.48;14.60;;;;;;;;;;5033854;28;20040;-66
2020/12/25 14:33:36;;;;;;;33.67;16.77;;;;;;;;;;5032574;28;20053;-66
2020/12/25 14:36:40;;;;;;;36.22;19.98;;;;;;;;;;5033489;28;20068;-66
2020/12/25 14:39:45;;;;;;;31.80;17.50;;;;;;;;;;5033749;28;20052;-65
2020/12/25 14:42:49;;;;;;;28.30;15.90;;;;;;;;;;5033633;28;20048;-65
2020/12/25 14:45:55;;;;;;;37.30;17.58;;;;;;;;;;5062418;28;20055;-65
2020/12/25 14:48:59;;;;;;;28.30;14.25;;;;;;;;;;5073114;28;20495;-65
2020/12/25 14:52:03;;;;;;;15.23;8.90;;;;;;;;;;5073336;28;20051;-65
2020/12/25 14:55:07;;;;;;;14.77;7.15;;;;;;;;;;5073361;28;20044;-65
2020/12/25 14:58:13;;;;;;;24.38;8.23;;;;;;;;;;5073316;28;20049;-65
2020/12/25 15:01:18;;;;;;;21.55;9.52;;;;;;;;;;5073177;28;20491;-65
2020/12/25 15:04:23;;;;;;;28.98;10.77;;;;;;;;;;5073053;28;20491;-65
2020/12/25 15:07:27;;;;;;;23.27;12.25;;;;;;;;;;5073062;28;20047;-65
2020/12/25 15:10:31;;;;;;;27.10;13.85;;;;;;;;;;5072224;28;20039;-65
2020/12/25 15:13:36;;;;;;;26.23;13.00;;;;;;;;;;5072741;28;20047;-66
2020/12/25 15:16:40;;;;;;;36.88;17.55;;;;;;;;;;5072819;28;20043;-65
2020/12/25 15:19:45;;;;;;;40.05;21.90;;;;;;;;;;5072840;28;20039;-65
2020/12/25 15:22:49;;;;;;;33.10;19.92;;;;;;;;;;5072844;28;20115;-65
2020/12/25 15:25:53;;;;;;;32.05;18.92;;;;;;;;;;5072519;28;20047;-66
2020/12/25 15:28:58;;;;;;;28.80;15.88;;;;;;;;;;5072629;28;20217;-65
2020/12/25 15:32:02;;;;;;;34.13;17.42;;;;;;;;;;5072385;28;20042;-65
2020/12/25 15:35:07;;;;;;;50.05;28.08;;;;;;;;;;5072452;28;20059;-65
2020/12/25 15:38:11;;;;;;;30.63;19.35;;;;;;;;;;5072377;28;20041;-65
2020/12/25 15:41:15;;;;;;;31.42;17.40;;;;;;;;;;5071886;28;20043;-65
2020/12/25 15:44:20;;;;;;;32.15;16.55;;;;;;;;;;5072048;28;20045;-65
2020/12/25 15:47:24;;;;;;;29.75;14.15;;;;;;;;;;5072124;28;20055;-66
2020/12/25 15:50:28;;;;;;;28.27;13.80;;;;;;;;;;5071902;28;20388;-66
2020/12/25 15:53:33;;;;;;;32.20;15.07;;;;;;;;;;5071884;28;20499;-65
2020/12/25 15:56:37;;;;;;;40.10;23.98;;;;;;;;;;5071858;28;20047;-66
2020/12/25 15:59:41;;;;;;;31.08;16.88;;;;;;;;;;5071934;28;20059;-65
2020/12/25 16:02:46;;;;;;;30.80;16.73;;;;;;;;;;5072040;28;20055;-66
2020/12/25 16:05:51;;;;;;;30.20;16.70;;;;;;;;;;5071649;28;20511;-66
2020/12/25 16:08:55;;;;;;;36.50;19.48;;;;;;;;;;5071798;28;20392;-66
2020/12/25 16:11:59;;;;;;;35.75;19.67;;;;;;;;;;5071803;28;20051;-66
2020/12/25 16:15:05;;;;;;;34.03;21.60;;;;;;;;;;5071786;28;20043;-66
2020/12/25 16:18:09;;;;;;;34.47;21.60;;;;;;;;;;5071645;28;20044;-66
2020/12/25 16:21:15;;;;;;;39.42;24.15;;;;;;;;;;5072039;28;20483;-66
2020/12/25 16:24:19;;;;;;;46.85;27.10;;;;;;;;;;5071338;28;20047;-66
2020/12/25 16:27:23;;;;;;;41.70;27.40;;;;;;;;;;5071635;28;20055;-66
2020/12/25 16:30:27;;;;;;;37.90;26.40;;;;;;;;;;5071351;28;20069;-66
2020/12/25 16:33:32;;;;;;;40.85;24.90;;;;;;;;;;5071533;28;20068;-66
2020/12/25 16:36:39;;;;;;;41.85;24.42;;;;;;;;;;5071321;28;20048;-66
2020/12/25 16:39:44;;;;;;;36.00;24.00;;;;;;;;;;5071039;28;20051;-66
2020/12/25 16:42:49;;;;;;;39.63;23.90;;;;;;;;;;5071343;28;20048;-65
2020/12/25 16:45:53;;;;;;;37.05;23.48;;;;;;;;;;5070767;28;20059;-66
2020/12/25 16:48:57;;;;;;;38.25;22.02;;;;;;;;;;5071279;28;20044;-76
2020/12/25 16:52:01;;;;;;;37.10;21.77;;;;;;;;;;5070516;28;20047;-76
2020/12/25 16:55:06;;;;;;;44.08;20.05;;;;;;;;;;5070146;28;20059;-75
2020/12/25 16:58:13;;;;;;;35.45;20.35;;;;;;;;;;5070114;28;20044;-75
2020/12/25 17:01:21;;;;;;;37.45;21.05;;;;;;;;;;5070365;28;20035;-75
2020/12/25 17:04:26;;;;;;;37.38;22.40;;;;;;;;;;5081757;28;20059;-75
2020/12/25 17:07:31;;;;;;;36.85;21.65;;;;;;;;;;5071129;28;20051;-75
2020/12/25 17:10:36;;;;;;;46.58;22.35;;;;;;;;;;5070864;28;20036;-75
2020/12/25 17:13:40;;;;;;;47.58;24.60;;;;;;;;;;5070924;28;20044;-75
2020/12/25 17:16:48;;;;;;;44.50;25.77;;;;;;;;;;5071163;28;20039;-75
2020/12/25 17:19:52;;;;;;;40.50;24.10;;;;;;;;;;5070879;28;20384;-75
2020/12/25 17:22:57;;;;;;;41.33;24.38;;;;;;;;;;5070996;28;20043;-75
2020/12/25 17:26:01;;;;;;;46.03;27.73;;;;;;;;;;5070817;28;20527;-75
2020/12/25 17:29:05;;;;;;;46.45;26.88;;;;;;;;;;5070579;28;20182;-75
2020/12/25 17:32:09;;;;;;;47.47;26.83;;;;;;;;;;5070503;28;20047;-75
2020/12/25 17:35:16;;;;;;;50.45;26.67;;;;;;;;;;5070592;28;20507;-75
2020/12/25 17:38:21;;;;;;;39.42;22.90;;;;;;;;;;5070588;28;20047;-75
2020/12/25 17:41:26;;;;;;;41.92;21.92;;;;;;;;;;5070823;28;20047;-75
2020/12/25 17:44:30;;;;;;;43.55;25.40;;;;;;;;;;5070489;28;20063;-75
2020/12/25 17:47:35;;;;;;;45.05;27.48;;;;;;;;;;5070396;28;20047;-75
2020/12/25 17:50:42;;;;;;;40.95;25.00;;;;;;;;;;5070866;28;20044;-75
2020/12/25 17:53:47;;;;;;;42.53;24.88;;;;;;;;;;5070860;28;20051;-75
2020/12/25 17:56:51;;;;;;;41.50;24.83;;;;;;;;;;5070870;28;20039;-75
2020/12/25 17:59:56;;;;;;;37.97;22.88;;;;;;;;;;5070829;28;20063;-75
2020/12/25 18:03:01;;;;;;;43.10;23.65;;;;;;;;;;5070745;28;20043;-75
2020/12/25 18:06:05;;;;;;;50.80;25.23;;;;;;;;;;5070390;28;20059;-75